Time;durP1;ratioP1;P1;durP2;ratioP2;P2;SDS_P1;SDS_P2;PMS_P1;PMS_P2;Temp;Humidity;BMP_temperature;BMP_pressure;BME280_temperature;BME280_humidity;BME280_pressure;Samples;Min_cycle;Max_cycle;Signal;HPM_P1;HPM_P2
2022/11/23 00:00:25;;;;;;;17.27;3.43;;;;;;;6.88;100.00;99423.53;5074328;28;20032;-85
2022/11/23 00:02:54;;;;;;;12.07;3.38;;;;;;;6.83;100.00;99434.13;5074517;28;20681;-85
2022/11/23 00:05:20;;;;;;;17.27;3.40;;;;;;;6.93;100.00;99428.22;5074148;28;20041;-85
2022/11/23 00:07:45;;;;;;;12.50;3.27;;;;;;;6.85;100.00;99423.97;5075714;28;20041;-85
2022/11/23 00:10:11;;;;;;;14.20;3.30;;;;;;;6.90;100.00;99429.50;5074528;28;20119;-85
2022/11/23 00:12:39;;;;;;;14.88;3.20;;;;;;;6.83;100.00;99434.94;5074378;28;20033;-85
2022/11/23 00:15:05;;;;;;;9.73;2.85;;;;;;;6.83;100.00;99434.94;5074538;28;20040;-85
2022/11/23 00:17:31;;;;;;;12.93;2.70;;;;;;;6.89;100.00;99435.94;5074176;28;20082;-85
2022/11/23 00:19:56;;;;;;;17.15;2.83;;;;;;;6.85;100.00;99438.25;5074997;28;20040;-85
2022/11/23 00:22:22;;;;;;;17.20;3.33;;;;;;;6.83;100.00;99429.56;5074191;28;20032;-85
2022/11/23 00:24:47;;;;;;;14.13;2.97;;;;;;;6.83;100.00;99437.66;5057382;28;20036;-85
2022/11/23 00:27:13;;;;;;;14.18;2.60;;;;;;;6.95;100.00;99435.06;5057414;28;20032;-86
2022/11/23 00:29:38;;;;;;;13.13;2.35;;;;;;;6.91;100.00;99449.19;5073978;28;20477;-85
2022/11/23 00:32:07;;;;;;;17.03;3.10;;;;;;;6.92;100.00;99445.44;5073670;28;20114;-85
2022/11/23 00:34:32;;;;;;;12.57;2.40;;;;;;;6.84;100.00;99438.50;5042016;28;20441;-85
2022/11/23 00:36:58;;;;;;;14.80;2.47;;;;;;;6.86;100.00;99447.16;5057562;28;20139;-85
2022/11/23 00:39:23;;;;;;;10.17;2.93;;;;;;;6.86;100.00;99441.78;5073861;28;20032;-86
2022/11/23 00:41:49;;;;;;;13.65;2.35;;;;;;;6.86;100.00;99447.16;5074306;28;20115;-85
2022/11/23 00:44:14;;;;;;;8.40;2.13;;;;;;;6.84;100.00;99447.41;5057064;28;20040;-86
2022/11/23 00:46:40;;;;;;;14.30;2.37;;;;;;;6.86;100.00;99447.16;5057363;28;20036;-85
2022/11/23 00:49:05;;;;;;;18.67;2.50;;;;;;;6.84;100.00;99452.78;5072998;28;20416;-85
2022/11/23 00:51:33;;;;;;;10.65;2.08;;;;;;;6.85;100.00;99445.53;5073499;28;20032;-85
2022/11/23 00:54:00;;;;;;;14.27;2.17;;;;;;;6.89;100.00;99459.38;5073544;28;20141;-85
2022/11/23 00:56:27;;;;;;;13.30;3.03;;;;;;;6.92;100.00;99461.63;5073433;28;20040;-85
2022/11/23 00:58:56;;;;;;;14.13;2.35;;;;;;;6.86;100.00;99452.56;5073363;28;20044;-86
2022/11/23 01:01:24;;;;;;;14.23;2.10;;;;;;;6.87;100.00;99456.09;5056951;28;20131;-86
2022/11/23 01:03:54;;;;;;;12.23;2.03;;;;;;;6.85;100.00;99453.63;5073289;28;20044;-85
2022/11/23 01:06:22;;;;;;;12.70;2.65;;;;;;;6.86;100.00;99452.56;5074048;28;20044;-85
2022/11/23 01:08:57;;;;;;;10.27;1.73;;;;;;;6.90;100.00;99456.47;5073455;28;20130;-84
2022/11/23 01:11:24;;;;;;;12.68;1.85;;;;;;;6.91;100.00;99459.97;5073368;28;20063;-85
2022/11/23 01:13:53;;;;;;;10.80;2.15;;;;;;;6.93;100.00;99456.00;5073084;28;20055;-85
2022/11/23 01:16:25;;;;;;;9.73;1.77;;;;;;;6.91;100.00;99458.13;5073358;28;20033;-86
2022/11/23 01:18:55;;;;;;;13.43;1.90;;;;;;;6.92;100.00;99457.03;5072816;28;20097;-85
2022/11/23 01:21:20;;;;;;;10.88;2.17;;;;;;;6.94;100.00;99454.97;5072969;28;20036;-85
2022/11/23 01:23:46;;;;;;;12.98;1.63;;;;;;;6.90;100.00;99461.03;5073208;28;20040;-84
2022/11/23 01:26:11;;;;;;;12.80;2.13;;;;;;;6.92;100.00;99461.63;5073212;28;20036;-85
2022/11/23 01:28:38;;;;;;;13.73;1.87;;;;;;;6.88;100.00;99469.34;5055931;28;20516;-85
2022/11/23 01:31:09;;;;;;;14.23;2.00;;;;;;;6.92;100.00;99475.09;5073555;28;20041;-86
2022/11/23 01:33:35;;;;;;;8.85;1.80;;;;;;;6.92;100.00;99465.13;5073039;28;20126;-85
2022/11/23 01:36:07;;;;;;;13.43;1.92;;;;;;;6.93;100.00;99479.47;5072792;28;20050;-85
2022/11/23 01:38:32;;;;;;;11.73;1.73;;;;;;;6.97;100.00;99477.97;5074646;28;20036;-86
2022/11/23 01:40:58;;;;;;;10.63;1.40;;;;;;;7.01;100.00;99477.28;5072746;28;20499;-85
2022/11/23 01:43:23;;;;;;;7.77;1.50;;;;;;;7.00;100.00;99478.31;5072569;28;20484;-85
2022/11/23 01:45:52;;;;;;;9.05;1.63;;;;;;;7.04;100.00;99494.88;5072271;28;20041;-85
2022/11/23 01:48:24;;;;;;;7.35;1.45;;;;;;;7.05;100.00;99491.13;5072404;28;20400;-86
2022/11/23 01:50:51;;;;;;;7.30;1.08;;;;;;;7.12;100.00;99491.88;5072305;28;20043;-85
2022/11/23 01:53:17;;;;;;;10.07;1.20;;;;;;;7.10;100.00;99490.44;5072212;28;20040;-85
2022/11/23 01:55:46;;;;;;;12.00;1.65;;;;;;;7.14;100.00;99488.97;5072546;28;20041;-85
2022/11/23 01:58:17;;;;;;;10.98;1.40;;;;;;;7.13;100.00;99485.44;5072609;28;20047;-85
2022/11/23 02:00:44;;;;;;;10.55;1.55;;;;;;;7.19;100.00;99486.41;5072737;28;20555;-85
2022/11/23 02:03:10;;;;;;;9.15;1.90;;;;;;;7.18;100.00;99488.28;5055654;28;20036;-85
2022/11/23 02:05:48;;;;;;;9.40;1.50;;;;;;;7.17;100.00;99491.19;5072096;28;20040;-85
2022/11/23 02:08:17;;;;;;;9.38;1.70;;;;;;;7.18;100.00;99493.66;5072724;28;20082;-85
2022/11/23 02:10:42;;;;;;;12.15;1.35;;;;;;;7.17;100.00;99502.81;5073307;28;20465;-85
2022/11/23 02:13:11;;;;;;;9.30;1.70;;;;;;;7.18;100.00;99501.75;5055992;28;20040;-85
2022/11/23 02:15:36;;;;;;;8.20;1.57;;;;;;;7.17;100.00;99493.91;5072636;28;20043;-85
2022/11/23 02:18:06;;;;;;;12.82;2.08;;;;;;;7.24;100.00;99496.53;5074582;28;20384;-85
2022/11/23 02:20:31;;;;;;;10.90;1.58;;;;;;;7.23;100.00;99489.47;5078946;28;20477;-84
2022/11/23 02:23:03;;;;;;;10.60;1.47;;;;;;;7.24;100.00;99496.53;5078825;28;20036;-85
2022/11/23 02:25:46;;;;;;;12.55;2.10;;;;;;;7.26;100.00;99500.63;5078850;28;20435;-84
2022/11/23 02:28:23;;;;;;;11.00;1.63;;;;;;;7.24;100.00;99500.03;5079452;28;20131;-85
2022/11/23 02:30:52;;;;;;;12.82;1.80;;;;;;;7.26;100.00;99507.91;5079103;28;20465;-84
2022/11/23 02:33:17;;;;;;;14.13;1.50;;;;;;;7.26;100.00;99506.03;5079009;28;20354;-84
2022/11/23 02:35:51;;;;;;;12.33;1.40;;;;;;;7.24;100.00;99502.75;5062647;28;20106;-85
2022/11/23 02:38:17;;;;;;;9.50;1.83;;;;;;;7.24;100.00;99508.13;5078796;28;20036;-85
2022/11/23 02:40:43;;;;;;;17.98;1.90;;;;;;;7.29;100.00;99515.53;5080346;28;20033;-85
2022/11/23 02:43:08;;;;;;;11.57;1.60;;;;;;;7.29;100.00;99505.59;5078458;28;20063;-84
2022/11/23 02:45:37;;;;;;;14.70;1.60;;;;;;;7.31;100.00;99506.19;5061939;28;20271;-85
2022/11/23 02:48:02;;;;;;;10.43;1.77;;;;;;;7.28;100.00;99511.19;5080135;28;20075;-85
2022/11/23 02:50:28;;;;;;;12.67;2.27;;;;;;;7.27;100.00;99515.78;5082045;28;20039;-84
2022/11/23 02:52:54;;;;;;;11.13;1.80;;;;;;;7.26;100.00;99511.41;5082302;28;20036;-85
2022/11/23 02:55:19;;;;;;;13.55;1.65;;;;;;;7.26;100.00;99516.00;5082531;28;20324;-85
2022/11/23 02:57:45;;;;;;;9.07;1.73;;;;;;;7.20;100.00;99512.31;5082025;28;20520;-85
2022/11/23 03:00:11;;;;;;;8.47;1.43;;;;;;;7.16;100.00;99513.81;5065283;28;20388;-85
2022/11/23 03:02:36;;;;;;;13.55;1.77;;;;;;;7.12;100.00;99509.94;5081869;28;20044;-85
2022/11/23 03:05:02;;;;;;;15.05;1.92;;;;;;;7.09;100.00;99508.53;5082379;28;20032;-85
2022/11/23 03:07:27;;;;;;;14.18;1.70;;;;;;;7.11;100.00;99519.91;5081941;28;20445;-84
2022/11/23 03:09:53;;;;;;;13.77;2.03;;;;;;;7.10;100.00;99510.19;5082584;28;20032;-85
2022/11/23 03:12:18;;;;;;;14.70;2.40;;;;;;;7.09;100.00;99518.50;5065144;28;20590;-85
2022/11/23 03:14:44;;;;;;;13.13;2.23;;;;;;;7.09;100.00;99516.63;5065177;28;20143;-84
2022/11/23 03:17:09;;;;;;;13.65;1.63;;;;;;;7.12;100.00;99513.47;5082026;28;20480;-85
2022/11/23 03:19:34;;;;;;;9.20;1.40;;;;;;;7.13;100.00;99514.28;5064978;28;20036;-85
2022/11/23 03:22:00;;;;;;;9.53;1.83;;;;;;;7.13;100.00;99522.38;5048158;28;20044;-84
2022/11/23 03:24:25;;;;;;;14.43;1.83;;;;;;;7.13;100.00;99519.66;5081721;28;20036;-84
2022/11/23 03:26:51;;;;;;;7.83;1.33;;;;;;;7.10;100.00;99529.06;5081711;28;20043;-84
2022/11/23 03:29:16;;;;;;;16.38;2.15;;;;;;;7.16;100.00;99521.91;5098862;28;20310;-85
2022/11/23 03:31:42;;;;;;;13.07;1.80;;;;;;;7.12;100.00;99516.16;5079049;28;20047;-85
2022/11/23 03:34:09;;;;;;;11.63;1.77;;;;;;;7.10;100.00;99520.13;5062126;28;20536;-85
2022/11/23 03:36:34;;;;;;;18.77;2.08;;;;;;;7.12;100.00;99509.94;5045181;28;20036;-84
2022/11/23 03:38:59;;;;;;;12.17;1.70;;;;;;;7.11;100.00;99519.09;5078117;28;20396;-84
2022/11/23 03:41:25;;;;;;;15.73;1.87;;;;;;;7.14;100.00;99514.03;5077988;28;20039;-84
2022/11/23 03:43:50;;;;;;;12.68;1.80;;;;;;;7.17;100.00;99513.59;5061883;28;20801;-84
2022/11/23 03:46:16;;;;;;;10.20;1.50;;;;;;;7.17;100.00;99510.91;5078820;28;20498;-84
2022/11/23 03:48:41;;;;;;;8.40;2.00;;;;;;;7.17;100.00;99516.28;5057883;28;20049;-85
2022/11/23 03:51:07;;;;;;;12.53;1.73;;;;;;;7.20;100.00;99512.31;5074767;28;20058;-85
2022/11/23 03:53:32;;;;;;;11.93;2.00;;;;;;;7.17;100.00;99510.91;5075578;28;20036;-85
2022/11/23 03:55:58;;;;;;;5.23;1.13;;;;;;;7.15;100.00;99510.31;5058000;28;20127;-85
2022/11/23 03:58:23;;;;;;;14.27;1.87;;;;;;;7.15;100.00;99514.88;5058215;28;20048;-84
2022/11/23 04:00:49;;;;;;;18.00;1.40;;;;;;;7.17;100.00;99518.19;5057623;28;20082;-84
2022/11/23 04:03:14;;;;;;;7.60;1.40;;;;;;;7.16;100.00;99517.34;5057772;28;20037;-84
2022/11/23 04:05:40;;;;;;;11.40;2.00;;;;;;;7.15;100.00;99522.97;5058149;28;20040;-84
2022/11/23 04:08:05;;;;;;;11.90;1.60;;;;;;;7.15;100.00;99526.50;5074901;28;20396;-84
2022/11/23 04:10:30;;;;;;;10.93;1.30;;;;;;;7.16;100.00;99522.75;5058457;28;20381;-84
2022/11/23 04:12:56;;;;;;;12.53;2.37;;;;;;;7.18;100.00;99533.31;5075037;28;20047;-84
2022/11/23 04:15:21;;;;;;;9.40;2.00;;;;;;;7.19;100.00;99524.19;5074499;28;20032;-85
2022/11/23 04:17:47;;;;;;;16.13;1.60;;;;;;;7.20;100.00;99525.81;5057655;28;20496;-84
2022/11/23 04:20:13;;;;;;;14.35;1.60;;;;;;;7.22;100.00;99521.03;5074300;28;20070;-85
2022/11/23 04:22:39;;;;;;;14.20;2.27;;;;;;;7.24;100.00;99521.63;5075461;28;20115;-85
2022/11/23 04:25:05;;;;;;;8.85;2.13;;;;;;;7.26;100.00;99511.41;5074968;28;20117;-85
2022/11/23 04:27:30;;;;;;;10.10;1.42;;;;;;;7.29;100.00;99518.25;5058044;28;20132;-85
2022/11/23 04:29:55;;;;;;;9.70;1.67;;;;;;;7.28;100.00;99517.44;5057377;28;20047;-85
2022/11/23 04:32:21;;;;;;;13.57;1.97;;;;;;;7.30;100.00;99514.50;5074262;28;20543;-84
2022/11/23 04:34:46;;;;;;;9.80;1.97;;;;;;;7.25;100.00;99507.09;5074927;28;20044;-85
2022/11/23 04:37:11;;;;;;;10.63;1.63;;;;;;;7.26;100.00;99516.00;5074267;28;20040;-85
2022/11/23 04:39:37;;;;;;;18.13;2.40;;;;;;;7.20;100.00;99521.25;5057217;28;20067;-84
2022/11/23 04:42:02;;;;;;;9.70;1.58;;;;;;;7.24;100.00;99510.84;5057179;28;20051;-85
2022/11/23 04:44:28;;;;;;;14.15;2.03;;;;;;;7.20;100.00;99518.56;5073854;28;20536;-84
2022/11/23 04:46:55;;;;;;;12.40;1.70;;;;;;;7.18;100.00;99520.66;5041322;28;20045;-85
2022/11/23 04:49:21;;;;;;;12.27;2.20;;;;;;;7.14;100.00;99521.31;5057148;28;20058;-84
2022/11/23 04:51:46;;;;;;;11.40;1.40;;;;;;;7.10;100.00;99514.72;5056976;28;20427;-85
2022/11/23 04:54:11;;;;;;;11.03;1.60;;;;;;;7.06;100.00;99524.31;5056975;28;20036;-84
2022/11/23 04:56:37;;;;;;;9.07;1.30;;;;;;;6.93;100.00;99526.13;5056938;28;20033;-84
2022/11/23 04:59:02;;;;;;;15.00;2.00;;;;;;;6.85;100.00;99526.44;5073459;28;20063;-85
2022/11/23 05:01:28;;;;;;;12.73;1.70;;;;;;;6.76;100.00;99511.56;5056427;28;20515;-85
2022/11/23 05:03:53;;;;;;;8.50;1.40;;;;;;;6.75;100.00;99520.72;5056668;28;20143;-84
2022/11/23 05:06:19;;;;;;;12.50;1.27;;;;;;;6.74;100.00;99524.47;5056727;28;20164;-85
2022/11/23 05:08:44;;;;;;;16.20;1.80;;;;;;;6.71;100.00;99520.31;5073198;28;20393;-84
2022/11/23 05:11:09;;;;;;;11.15;1.92;;;;;;;6.66;100.00;99520.19;5072862;28;20480;-85
2022/11/23 05:13:35;;;;;;;15.40;1.73;;;;;;;6.68;100.00;99508.09;5056499;28;20464;-84
2022/11/23 05:16:03;;;;;;;12.83;1.77;;;;;;;6.67;100.00;99511.88;5073034;28;20040;-84
2022/11/23 05:18:28;;;;;;;13.55;1.48;;;;;;;6.68;100.00;99513.50;5073340;28;20105;-84
2022/11/23 05:20:54;;;;;;;19.20;2.13;;;;;;;6.68;100.00;99510.00;5073024;28;20532;-83
2022/11/23 05:23:19;;;;;;;20.10;2.33;;;;;;;6.70;100.00;99502.50;5056305;28;20036;-84
2022/11/23 05:25:45;;;;;;;19.95;1.70;;;;;;;6.66;100.00;99509.41;5073002;28;20037;-84
2022/11/23 05:28:15;;;;;;;15.73;2.10;;;;;;;6.65;100.00;99505.03;5073944;28;20028;-84
2022/11/23 05:30:43;;;;;;;11.27;1.80;;;;;;;6.64;100.00;99509.63;5072492;28;20058;-84
2022/11/23 05:33:08;;;;;;;17.77;1.88;;;;;;;6.64;100.00;99504.22;5072685;28;20068;-84
2022/11/23 05:35:34;;;;;;;11.18;1.90;;;;;;;6.70;100.00;99515.16;5056379;28;20077;-84
2022/11/23 05:38:00;;;;;;;11.70;2.00;;;;;;;6.68;100.00;99513.50;5072754;28;20048;-85
2022/11/23 05:40:26;;;;;;;15.90;2.95;;;;;;;6.61;100.00;99509.22;5055730;28;20041;-84
2022/11/23 05:42:56;;;;;;;16.30;2.20;;;;;;;6.57;100.00;99514.25;5074011;28;20036;-84
2022/11/23 05:45:22;;;;;;;18.15;2.05;;;;;;;6.54;100.00;99516.53;5073895;28;20476;-85
2022/11/23 05:47:55;;;;;;;10.77;2.33;;;;;;;6.56;100.00;99515.28;5055896;28;20056;-85
2022/11/23 05:50:22;;;;;;;17.00;1.58;;;;;;;6.52;100.00;99519.47;5072222;28;20072;-84
2022/11/23 05:52:47;;;;;;;15.73;1.85;;;;;;;6.54;100.00;99530.03;5071911;28;20060;-84
2022/11/23 05:55:14;;;;;;;15.17;1.87;;;;;;;6.52;100.00;99522.16;5072259;28;20523;-83
2022/11/23 05:57:39;;;;;;;14.98;1.80;;;;;;;6.45;100.00;99524.94;5072379;28;20048;-83
2022/11/23 06:00:06;;;;;;;14.35;1.83;;;;;;;6.49;100.00;99526.13;5055853;28;20155;-83
2022/11/23 06:02:31;;;;;;;20.40;2.53;;;;;;;6.44;100.00;99517.06;5072646;28;20463;-82
2022/11/23 06:04:57;;;;;;;14.25;2.15;;;;;;;6.43;100.00;99523.50;5055902;28;20131;-82
2022/11/23 06:07:22;;;;;;;18.83;1.90;;;;;;;6.46;100.00;99521.16;5055752;28;20044;-82
2022/11/23 06:09:48;;;;;;;16.47;1.80;;;;;;;6.56;100.00;99520.69;5072326;28;20496;-82
2022/11/23 06:12:13;;;;;;;13.60;1.83;;;;;;;6.58;100.00;99517.75;5039071;28;20127;-84
2022/11/23 06:14:41;;;;;;;16.60;1.80;;;;;;;6.57;100.00;99524.19;5055441;28;20043;-86
2022/11/23 06:17:07;;;;;;;14.90;1.80;;;;;;;6.59;100.00;99531.00;5055308;28;20044;-87
2022/11/23 06:19:33;;;;;;;9.70;2.03;;;;;;;6.61;100.00;99528.91;5038590;28;20067;-84
2022/11/23 06:21:58;;;;;;;16.03;1.60;;;;;;;6.67;100.00;99521.81;5072179;28;20440;-85
2022/11/23 06:24:24;;;;;;;15.60;1.92;;;;;;;6.65;100.00;99535.50;5055433;28;20037;-84
2022/11/23 06:26:53;;;;;;;16.57;1.93;;;;;;;6.65;100.00;99521.22;5055321;28;20044;-83
2022/11/23 06:29:19;;;;;;;14.30;2.28;;;;;;;6.66;100.00;99528.28;5073485;28;20037;-84
2022/11/23 06:31:45;;;;;;;16.70;2.03;;;;;;;6.66;100.00;99533.66;5073375;28;20040;-84
2022/11/23 06:34:13;;;;;;;17.67;1.97;;;;;;;6.64;100.00;99535.72;5055342;28;20115;-85
2022/11/23 06:36:46;;;;;;;17.95;2.50;;;;;;;6.60;100.00;99529.13;5071459;28;20119;-91
2022/11/23 06:39:12;;;;;;;16.23;1.90;;;;;;;6.60;100.00;99534.53;5073503;28;20044;-83
2022/11/23 06:41:38;;;;;;;18.40;3.23;;;;;;;6.61;100.00;99541.56;5073258;28;20411;-83
2022/11/23 06:44:04;;;;;;;14.00;2.30;;;;;;;6.63;100.00;99537.63;5055296;28;20526;-83
2022/11/23 06:46:32;;;;;;;15.50;2.05;;;;;;;6.61;100.00;99536.19;5055446;28;20044;-83
2022/11/23 06:48:57;;;;;;;18.58;2.22;;;;;;;6.62;100.00;99538.66;5055743;28;20103;-83
2022/11/23 06:51:23;;;;;;;19.15;2.00;;;;;;;6.61;100.00;99537.00;5071776;28;20048;-83
2022/11/23 06:53:48;;;;;;;15.50;2.17;;;;;;;6.66;100.00;99547.13;5071798;28;20102;-84
2022/11/23 06:56:14;;;;;;;16.07;2.10;;;;;;;6.64;100.00;99543.81;5071764;28;20090;-83
2022/11/23 06:58:39;;;;;;;21.23;2.00;;;;;;;6.63;100.00;99539.50;5072264;28;20032;-83
2022/11/23 07:01:10;;;;;;;16.75;2.53;;;;;;;6.64;100.00;99557.28;5054569;28;20032;-83
2022/11/23 07:03:36;;;;;;;11.48;1.70;;;;;;;6.63;100.00;99552.97;5071811;28;20170;-82
2022/11/23 07:06:06;;;;;;;13.30;1.77;;;;;;;6.58;100.00;99558.19;5075257;28;20120;-83
2022/11/23 07:08:32;;;;;;;14.50;1.83;;;;;;;6.58;100.00;99566.28;5074951;28;20036;-82
2022/11/23 07:11:05;;;;;;;12.93;1.60;;;;;;;6.57;100.00;99570.00;5075207;28;20500;-82
2022/11/23 07:13:31;;;;;;;13.25;1.77;;;;;;;6.50;100.00;99570.06;5075940;28;20032;-84
2022/11/23 07:15:58;;;;;;;14.07;1.55;;;;;;;6.46;100.00;99577.75;5075046;28;20063;-85
2022/11/23 07:18:24;;;;;;;10.57;1.65;;;;;;;6.41;100.00;99572.22;5058484;28;20044;-83
2022/11/23 07:20:49;;;;;;;19.77;2.22;;;;;;;6.36;100.00;99577.41;5074510;28;20056;-83
2022/11/23 07:23:15;;;;;;;17.27;2.13;;;;;;;6.31;100.00;99586.16;5074314;28;20032;-83
2022/11/23 07:25:40;;;;;;;15.73;1.83;;;;;;;6.25;100.00;99584.34;5075072;28;20033;-84
2022/11/23 07:28:06;;;;;;;10.27;1.67;;;;;;;6.22;100.00;99592.03;5057870;28;20036;-83
2022/11/23 07:30:34;;;;;;;16.48;2.10;;;;;;;6.20;100.00;99594.13;5057665;28;20432;-83
2022/11/23 07:33:08;;;;;;;14.63;1.60;;;;;;;6.17;100.00;99591.84;5074860;28;20174;-84
2022/11/23 07:35:34;;;;;;;14.05;1.52;;;;;;;6.10;100.00;99595.44;5075001;28;20499;-82
2022/11/23 07:38:00;;;;;;;12.20;1.60;;;;;;;6.04;100.00;99599.00;5074730;28;20038;-83
2022/11/23 07:40:26;;;;;;;11.77;1.67;;;;;;;6.00;100.00;99600.47;5075777;28;20111;-82
2022/11/23 07:42:52;;;;;;;14.40;1.27;;;;;;;5.95;100.00;99603.75;5074833;28;20032;-82
2022/11/23 07:45:17;;;;;;;14.87;2.23;;;;;;;5.95;100.00;99608.34;5075730;28;20079;-83
2022/11/23 07:47:43;;;;;;;15.00;1.52;;;;;;;6.03;100.00;99613.47;5058682;28;20032;-82
2022/11/23 07:50:11;;;;;;;15.75;1.30;;;;;;;6.02;100.00;99609.13;5057817;28;20060;-82
2022/11/23 07:52:38;;;;;;;18.70;1.63;;;;;;;5.99;100.00;99627.59;5057440;28;20090;-82
2022/11/23 07:55:04;;;;;;;14.32;1.52;;;;;;;5.99;100.00;99619.53;5074020;28;20036;-85
2022/11/23 07:57:30;;;;;;;11.43;1.95;;;;;;;6.00;100.00;99623.88;5057396;28;20033;-82
2022/11/23 07:59:55;;;;;;;8.70;1.73;;;;;;;5.99;100.00;99624.91;5074198;28;20118;-82
2022/11/23 08:02:21;;;;;;;10.87;1.60;;;;;;;6.00;100.00;99621.19;5075621;28;20060;-83
2022/11/23 08:04:46;;;;;;;11.93;1.45;;;;;;;6.05;100.00;99626.72;5041164;28;20051;-82
2022/11/23 08:07:12;;;;;;;14.07;1.73;;;;;;;6.03;100.00;99624.25;5057616;28;20067;-83
2022/11/23 08:09:38;;;;;;;13.70;1.47;;;;;;;6.03;100.00;99621.56;5074417;28;20469;-82
2022/11/23 08:12:04;;;;;;;14.45;1.85;;;;;;;6.04;100.00;99623.22;5075369;28;20087;-82
2022/11/23 08:14:29;;;;;;;15.68;2.08;;;;;;;6.08;100.00;99627.13;5057739;28;20044;-82
2022/11/23 08:16:54;;;;;;;14.20;1.60;;;;;;;6.14;100.00;99625.44;5073487;28;20503;-82
2022/11/23 08:19:20;;;;;;;13.27;1.83;;;;;;;6.16;100.00;99620.66;5074569;28;20072;-82
2022/11/23 08:21:45;;;;;;;7.67;1.63;;;;;;;6.18;100.00;99633.91;5073535;28;20041;-82
2022/11/23 08:24:11;;;;;;;10.67;1.47;;;;;;;6.19;100.00;99628.31;5074063;28;20072;-82
2022/11/23 08:26:37;;;;;;;14.73;1.48;;;;;;;6.20;100.00;99624.59;5075314;28;20058;-82
2022/11/23 08:29:03;;;;;;;13.10;1.23;;;;;;;6.21;100.00;99622.72;5040627;28;20029;-82
2022/11/23 08:31:29;;;;;;;10.93;1.95;;;;;;;6.24;100.00;99623.09;5073668;28;20036;-82
2022/11/23 08:33:54;;;;;;;11.83;1.50;;;;;;;6.29;100.00;99633.25;5073862;28;20044;-82
2022/11/23 08:36:20;;;;;;;12.82;1.40;;;;;;;6.34;100.00;99651.44;5073762;28;20777;-82
2022/11/23 08:38:45;;;;;;;9.20;1.17;;;;;;;6.43;100.00;99624.00;5074779;28;20048;-82
2022/11/23 08:41:11;;;;;;;15.00;1.87;;;;;;;6.50;100.00;99629.34;5073779;28;20040;-81
2022/11/23 08:43:36;;;;;;;10.67;1.20;;;;;;;6.47;100.00;99633.31;5057342;28;20072;-82
2022/11/23 08:46:03;;;;;;;13.48;1.60;;;;;;;6.47;100.00;99640.56;5074531;28;20087;-82
2022/11/23 08:48:28;;;;;;;12.95;2.15;;;;;;;6.52;100.00;99638.03;5079960;28;20059;-82
2022/11/23 08:50:57;;;;;;;8.90;1.35;;;;;;;6.53;100.00;99634.31;5060926;28;20044;-82
2022/11/23 08:53:23;;;;;;;9.75;1.38;;;;;;;6.57;100.00;99635.53;5094406;28;20408;-83
2022/11/23 08:55:48;;;;;;;11.30;1.43;;;;;;;6.64;100.00;99633.63;5076710;28;20469;-82
2022/11/23 08:58:13;;;;;;;10.90;1.83;;;;;;;6.62;100.00;99637.56;5095121;28;20273;-82
2022/11/23 09:00:39;;;;;;;13.23;2.13;;;;;;;6.68;100.00;99633.97;5059940;28;20449;-84
2022/11/23 09:03:04;;;;;;;18.07;2.67;;;;;;;6.74;100.00;99621.50;5094263;28;20088;-83
2022/11/23 09:05:30;;;;;;;11.13;1.50;;;;;;;6.74;100.00;99633.09;5059869;28;20040;-84
2022/11/23 09:07:59;;;;;;;11.57;1.33;;;;;;;6.72;100.00;99618.19;5043185;28;20036;-83
2022/11/23 09:10:24;;;;;;;13.18;2.15;;;;;;;6.73;100.00;99636.00;5076654;28;20036;-83
2022/11/23 09:12:50;;;;;;;15.33;1.33;;;;;;;6.84;99.21;99628.03;5076428;28;20047;-82
2022/11/23 09:15:16;;;;;;;13.82;1.50;;;;;;;6.87;98.54;99620.56;5043331;28;20040;-83
2022/11/23 09:17:41;;;;;;;10.57;1.23;;;;;;;6.82;99.64;99619.34;5076120;28;20040;-83
2022/11/23 09:20:08;;;;;;;11.43;1.70;;;;;;;6.88;98.80;99628.44;5094727;28;20098;-83
2022/11/23 09:22:34;;;;;;;13.85;2.38;;;;;;;6.84;98.80;99611.03;5076696;28;20036;-82
2022/11/23 09:25:00;;;;;;;9.33;1.67;;;;;;;6.90;98.30;99618.25;5075897;28;20081;-83
2022/11/23 09:27:25;;;;;;;12.30;1.60;;;;;;;6.90;98.69;99601.25;5093836;28;20090;-83
2022/11/23 09:29:51;;;;;;;8.30;1.20;;;;;;;6.91;98.86;99600.19;5076704;28;20036;-83
2022/11/23 09:32:16;;;;;;;11.20;1.47;;;;;;;6.97;97.49;99604.72;5075993;28;20127;-84
2022/11/23 09:34:44;;;;;;;16.13;1.60;;;;;;;6.98;97.64;99606.34;5059399;28;20072;-83
2022/11/23 09:37:10;;;;;;;11.32;1.40;;;;;;;7.03;96.01;99604.63;5059296;28;20036;-83
2022/11/23 09:39:36;;;;;;;10.18;1.13;;;;;;;6.99;96.50;99587.25;5075853;28;20039;-84
2022/11/23 09:42:01;;;;;;;10.13;1.60;;;;;;;7.07;96.13;99579.91;5094436;28;20525;-84
2022/11/23 09:44:44;;;;;;;11.40;1.23;;;;;;;7.05;96.66;99590.94;5075983;28;20124;-83
2022/11/23 09:47:32;;;;;;;12.65;1.25;;;;;;;7.06;95.96;99584.50;5076097;28;20472;-84
2022/11/23 09:50:06;;;;;;;6.38;0.85;;;;;;;7.10;95.55;99582.16;5094191;28;20044;-83
2022/11/23 09:52:34;;;;;;;10.50;1.30;;;;;;;7.14;95.51;99577.97;5075817;28;20040;-83
2022/11/23 09:55:10;;;;;;;15.93;1.15;;;;;;;7.15;95.15;99576.94;5059584;28;20127;-84
2022/11/23 09:57:40;;;;;;;12.93;1.52;;;;;;;7.12;94.42;99570.09;5093943;28;20119;-83
2022/11/23 10:00:15;;;;;;;11.70;0.95;;;;;;;7.14;96.06;99569.88;5075765;28;20035;-83
2022/11/23 10:02:40;;;;;;;12.32;1.83;;;;;;;7.16;94.66;99560.53;5075635;28;20044;-84
2022/11/23 10:05:07;;;;;;;8.90;1.03;;;;;;;7.18;94.64;99557.59;5058667;28;20096;-83
2022/11/23 10:08:05;;;;;;;9.32;1.00;;;;;;;7.23;96.49;99554.22;5075207;28;20063;-83
2022/11/23 10:10:53;;;;;;;8.93;1.93;;;;;;;7.25;95.28;99552.97;5075402;28;20032;-83
2022/11/23 10:13:21;;;;;;;14.48;1.08;;;;;;;7.33;95.51;99543.72;5076023;28;20035;-82
2022/11/23 10:16:05;;;;;;;4.90;1.00;;;;;;;7.43;94.20;99544.03;5093566;28;20555;-84
2022/11/23 10:18:36;;;;;;;7.32;0.95;;;;;;;7.42;94.10;99552.34;5075514;28;20032;-84
2022/11/23 10:21:43;;;;;;;9.48;1.30;;;;;;;7.53;94.15;99548.88;5075660;28;20032;-84
2022/11/23 10:24:23;;;;;;;9.50;1.03;;;;;;;7.61;92.34;99553.16;5079851;28;20089;-83
2022/11/23 10:26:49;;;;;;;10.32;1.13;;;;;;;7.63;92.47;99543.78;5060061;28;20050;-83
2022/11/23 10:29:27;;;;;;;7.97;1.10;;;;;;;7.69;93.07;99534.75;5093168;28;20032;-82
2022/11/23 10:31:53;;;;;;;8.02;1.00;;;;;;;7.76;92.06;99541.94;5075763;28;20044;-83
2022/11/23 10:34:37;;;;;;;9.05;1.20;;;;;;;7.84;92.02;99544.31;5075675;28;20578;-83
2022/11/23 10:37:02;;;;;;;12.65;1.58;;;;;;;7.92;91.14;99548.56;5075309;28;20039;-83
2022/11/23 10:39:27;;;;;;;6.87;1.70;;;;;;;8.02;91.30;99544.25;5060097;28;20047;-83
2022/11/23 10:41:59;;;;;;;10.50;0.93;;;;;;;8.13;91.41;99539.13;5045898;28;20043;-84
2022/11/23 10:44:31;;;;;;;9.82;1.10;;;;;;;8.28;89.84;99534.09;5079480;28;20040;-85
2022/11/23 10:46:57;;;;;;;6.68;0.77;;;;;;;8.41;89.44;99533.91;5079183;28;20036;-83
2022/11/23 10:49:28;;;;;;;11.23;1.00;;;;;;;8.59;88.28;99535.69;5097762;28;20055;-83
2022/11/23 10:51:55;;;;;;;6.38;0.82;;;;;;;8.75;87.73;99536.03;5079162;28;20032;-83
2022/11/23 10:54:25;;;;;;;13.40;0.98;;;;;;;8.99;86.32;99539.56;5097063;28;20468;-83
2022/11/23 10:56:52;;;;;;;6.82;1.00;;;;;;;9.20;86.52;99535.41;5097212;28;20093;-84
2022/11/23 10:59:28;;;;;;;8.55;1.35;;;;;;;9.55;85.17;99522.84;5078869;28;20044;-84
2022/11/23 11:02:04;;;;;;;9.80;1.15;;;;;;;9.71;82.95;99521.25;5097293;28;20096;-83
2022/11/23 11:04:29;;;;;;;9.68;1.02;;;;;;;9.82;83.33;99515.78;5079084;28;20093;-83
2022/11/23 11:07:30;;;;;;;9.20;1.20;;;;;;;10.10;82.43;99516.00;5078719;28;20496;-83
2022/11/23 11:10:00;;;;;;;10.35;1.75;;;;;;;10.24;80.61;99501.03;4995146;28;20050;-85
2022/11/23 11:12:31;;;;;;;7.23;1.60;;;;;;;10.25;78.81;99497.28;5078827;28;20061;-86
2022/11/23 11:15:03;;;;;;;6.72;1.52;;;;;;;10.17;79.12;99497.66;5078117;28;20043;-84
2022/11/23 11:17:33;;;;;;;5.85;0.82;;;;;;;10.04;78.38;99500.69;5078538;28;20036;-83
2022/11/23 11:20:19;;;;;;;5.90;1.02;;;;;;;9.89;80.08;99504.81;5062707;28;20075;-83
2022/11/23 11:22:45;;;;;;;9.18;1.27;;;;;;;9.98;78.78;99484.38;5078063;28;20078;-83
2022/11/23 11:25:30;;;;;;;6.10;0.70;;;;;;;10.03;80.50;99488.22;5061792;28;20036;-82
2022/11/23 11:27:57;;;;;;;7.68;1.13;;;;;;;10.09;78.11;99485.34;5078558;28;20047;-83
2022/11/23 11:30:24;;;;;;;6.22;0.95;;;;;;;10.28;77.57;99474.28;5078474;28;20113;-83